CYQG - Windsor

Pirep is a free, collaborative database of all public and private airports located within the United States. All pilots are welcome to contribute, edit, and improve any airport they have local knowledge about, no registration required.
Are you familiar with this airport? Help out other pilots by adding your local knowledge.
Uploaded photos will be licensed under a CC BY-SA 4.0 license. Please only upload photos you have the rights to use.
Tags
Public
Undocu­mented
METAR / TAF
Webcam
Edit Tags
Food
Camping
Lodging
Car Rental
Bicycles
Swimming
Golfing
Fishing
Hot Springs
Museum
Flying Clubs
Airpark
Upcoming Events
No upcoming events. Is anything happening here soon?
*
*
*

Where exactly on/near the airport is this event taking place?

Is there a webpage with more information for this event?

Who should be contacted for more information?

What is this event all about?

Repeat every
Description
Transient Parking
Fuel Location
Landing & Tie-down Fees
Crew Car Availability
Flying Clubs
WiFi Access
Airport Statistics
Location: Windsor, CN
Elevation: 622ft
Activation date: Mar 2005
Fuel: None
Runway 07/25: 9,000ft
Runway 12/30: 5,150ft
Access: Open to the public
Current Weather — MVFR
  • Weather data is strictly informational and not for flight planning purposes.
  • METAR
    2024-04-24 11:23:00 EDT
    Ceiling Wind Temperature Dewpoint Weather Visbility
    2,900ft 10° @ 15kt, gusts 21kt 41°F 33°F N/A 9SM
    Clouds: Scattered @ 2,300ft, Overcast @ 2,900ft
    Raw: CYQG 241523Z AUTO 01015G21KT 9SM SCT023 OVC029 05/01 A3014 RMK SLP214
  • TAF
    2024-04-24 08:00:00 EDT – 2024-04-24 10:00:00 EDT
    Ceiling Wind Weather Visbility
    1,500ft 350° @ 13kt, gusts 23kt N/A 6SM
    Clouds: Overcast @ 1,500ft
    Raw: TAF CYQG 241140Z 2412/2512 35013G23KT P6SM OVC015 TEMPO 2412/2414 BKN008 OVC015 FM241400 36015G25KT P6SM OVC020 TEMPO 2414/2416 BKN030 FM241600 36012G22KT P6SM BKN040 FM242000 36012KT P6SM FEW050 FM250500 35005KT P6SM SKC RMK FCST BASED ON AUTO OBS. NXT FCST BY 241800Z
  • TAF
    2024-04-24 08:00:00 EDT – 2024-04-24 10:00:00 EDT
    Ceiling Wind Weather Visbility
    800ft ° @ kt N/A SM
    Clouds: Broken @ 800ft, Overcast @ 1,500ft
    Raw: TAF CYQG 241140Z 2412/2512 35013G23KT P6SM OVC015 TEMPO 2412/2414 BKN008 OVC015 FM241400 36015G25KT P6SM OVC020 TEMPO 2414/2416 BKN030 FM241600 36012G22KT P6SM BKN040 FM242000 36012KT P6SM FEW050 FM250500 35005KT P6SM SKC RMK FCST BASED ON AUTO OBS. NXT FCST BY 241800Z
  • TAF
    2024-04-24 10:00:00 EDT – 2024-04-24 12:00:00 EDT
    Ceiling Wind Weather Visbility
    2,000ft 360° @ 15kt, gusts 25kt N/A 6SM
    Clouds: Overcast @ 2,000ft
    Raw: TAF CYQG 241140Z 2412/2512 35013G23KT P6SM OVC015 TEMPO 2412/2414 BKN008 OVC015 FM241400 36015G25KT P6SM OVC020 TEMPO 2414/2416 BKN030 FM241600 36012G22KT P6SM BKN040 FM242000 36012KT P6SM FEW050 FM250500 35005KT P6SM SKC RMK FCST BASED ON AUTO OBS. NXT FCST BY 241800Z
  • TAF
    2024-04-24 10:00:00 EDT – 2024-04-24 12:00:00 EDT
    Ceiling Wind Weather Visbility
    3,000ft ° @ kt N/A SM
    Clouds: Broken @ 3,000ft
    Raw: TAF CYQG 241140Z 2412/2512 35013G23KT P6SM OVC015 TEMPO 2412/2414 BKN008 OVC015 FM241400 36015G25KT P6SM OVC020 TEMPO 2414/2416 BKN030 FM241600 36012G22KT P6SM BKN040 FM242000 36012KT P6SM FEW050 FM250500 35005KT P6SM SKC RMK FCST BASED ON AUTO OBS. NXT FCST BY 241800Z
  • TAF
    2024-04-24 12:00:00 EDT – 2024-04-24 16:00:00 EDT
    Ceiling Wind Weather Visbility
    4,000ft 360° @ 12kt, gusts 22kt N/A 6SM
    Clouds: Broken @ 4,000ft
    Raw: TAF CYQG 241140Z 2412/2512 35013G23KT P6SM OVC015 TEMPO 2412/2414 BKN008 OVC015 FM241400 36015G25KT P6SM OVC020 TEMPO 2414/2416 BKN030 FM241600 36012G22KT P6SM BKN040 FM242000 36012KT P6SM FEW050 FM250500 35005KT P6SM SKC RMK FCST BASED ON AUTO OBS. NXT FCST BY 241800Z
  • TAF
    2024-04-24 16:00:00 EDT – 2024-04-25 01:00:00 EDT
    Ceiling Wind Weather Visbility
    Sky clear 360° @ 12kt N/A 6SM
    Clouds: Few @ 5,000ft
    Raw: TAF CYQG 241140Z 2412/2512 35013G23KT P6SM OVC015 TEMPO 2412/2414 BKN008 OVC015 FM241400 36015G25KT P6SM OVC020 TEMPO 2414/2416 BKN030 FM241600 36012G22KT P6SM BKN040 FM242000 36012KT P6SM FEW050 FM250500 35005KT P6SM SKC RMK FCST BASED ON AUTO OBS. NXT FCST BY 241800Z
  • TAF
    2024-04-25 01:00:00 EDT – 2024-04-25 08:00:00 EDT
    Ceiling Wind Weather Visbility
    Sky clear 350° @ 5kt N/A 6SM
    Clouds: @ ft
    Raw: TAF CYQG 241140Z 2412/2512 35013G23KT P6SM OVC015 TEMPO 2412/2414 BKN008 OVC015 FM241400 36015G25KT P6SM OVC020 TEMPO 2414/2416 BKN030 FM241600 36012G22KT P6SM BKN040 FM242000 36012KT P6SM FEW050 FM250500 35005KT P6SM SKC RMK FCST BASED ON AUTO OBS. NXT FCST BY 241800Z
Click/tap to add an annotation marker to the map
Direct links to live image URLs will be displayed inline on this page. URLs to separate webpages will be linked to.
URL:
Direct links to live image URLs will be displayed inline on this page. URLs to separate webpages will be linked to.
URL:
Remarks
  • For cd ctc detroit apch at 734-955-1404.
Comments
Leave a comment What was your experience like at this airport?